Time;durP1;ratioP1;P1;durP2;ratioP2;P2;SDS_P1;SDS_P2;PMS_P1;PMS_P2;Temp;Humidity;BMP_temperature;BMP_pressure;BME280_temperature;BME280_humidity;BME280_pressure;Samples;Min_cycle;Max_cycle;Signal;HPM_P1;HPM_P2
2022/05/09 00:00:22;;;;;;;8.23;2.50;;;;;;;8.79;64.61;102639.16;5064643;28;20049;-65
2022/05/09 00:02:49;;;;;;;12.25;3.10;;;;;;;8.77;64.72;102642.66;5069468;28;20045;-65
2022/05/09 00:05:20;;;;;;;9.27;2.45;;;;;;;8.71;64.94;102635.59;5073260;28;20112;-65
2022/05/09 00:07:48;;;;;;;9.13;2.55;;;;;;;8.69;65.11;102647.84;5063791;28;20037;-67
2022/05/09 00:10:19;;;;;;;12.43;2.47;;;;;;;8.66;65.40;102637.28;5060315;28;20048;-66
2022/05/09 00:12:47;;;;;;;9.38;3.20;;;;;;;8.65;65.49;102640.78;5061446;28;20047;-65
2022/05/09 00:15:17;;;;;;;6.30;2.53;;;;;;;8.62;65.63;102646.06;5071576;28;20159;-66
2022/05/09 00:17:45;;;;;;;10.55;2.63;;;;;;;8.57;65.64;102640.78;5072879;28;20134;-65
2022/05/09 00:20:17;;;;;;;6.85;2.28;;;;;;;8.54;65.78;102640.72;5066665;28;20077;-65
2022/05/09 00:22:52;;;;;;;9.88;2.60;;;;;;;8.52;66.28;102634.56;5064804;28;20811;-68
2022/05/09 00:25:27;;;;;;;10.85;2.53;;;;;;;8.49;66.45;102630.19;5065670;28;20047;-69
2022/05/09 00:27:57;;;;;;;9.77;2.35;;;;;;;8.44;66.50;102631.88;5063960;28;20041;-67
2022/05/09 00:30:24;;;;;;;10.98;2.75;;;;;;;8.42;66.81;102633.63;5060915;28;20041;-68
2022/05/09 00:32:52;;;;;;;11.05;2.65;;;;;;;8.37;67.01;102630.06;5058858;28;20041;-67
2022/05/09 00:35:21;;;;;;;14.30;3.28;;;;;;;8.33;67.43;102629.16;5063682;28;20566;-67
2022/05/09 00:37:49;;;;;;;8.10;2.67;;;;;;;8.29;67.52;102629.13;5070187;28;20029;-68
2022/05/09 00:40:16;;;;;;;9.10;3.00;;;;;;;8.24;67.78;102626.47;5069412;28;20469;-67
2022/05/09 00:42:54;;;;;;;12.43;2.80;;;;;;;8.17;67.67;102619.41;5068789;28;20050;-68
2022/05/09 00:45:24;;;;;;;9.95;2.63;;;;;;;8.11;68.17;102616.72;5068997;28;20075;-67
2022/05/09 00:47:52;;;;;;;10.75;2.70;;;;;;;8.05;68.32;102615.81;5065419;28;20835;-68
2022/05/09 00:50:26;;;;;;;11.55;3.22;;;;;;;7.99;68.40;102613.09;5067000;28;20041;-68
2022/05/09 00:53:07;;;;;;;10.55;2.92;;;;;;;7.99;68.36;102615.75;5068948;28;20049;-68
2022/05/09 00:55:47;;;;;;;15.80;3.40;;;;;;;7.98;68.94;102621.88;5058236;28;20475;-68
2022/05/09 00:58:32;;;;;;;9.65;2.78;;;;;;;7.90;68.94;102620.91;5062619;28;20550;-68
2022/05/09 01:01:00;;;;;;;10.20;3.20;;;;;;;7.89;69.11;102616.53;5063698;28;20041;-67
2022/05/09 01:04:18;;;;;;;12.93;3.13;;;;;;;7.86;69.39;102616.50;5061592;28;20060;-68
2022/05/09 01:06:45;;;;;;;13.93;2.97;;;;;;;7.84;69.19;102623.50;5062385;28;20041;-68
2022/05/09 01:09:12;;;;;;;11.65;3.17;;;;;;;7.83;69.53;102613.84;5061458;28;20041;-67
2022/05/09 01:11:44;;;;;;;13.80;2.53;;;;;;;7.80;69.80;102619.97;5065824;28;20041;-66
2022/05/09 01:14:22;;;;;;;12.32;2.95;;;;;;;7.78;69.79;102614.66;5065057;28;20057;-67
2022/05/09 01:17:02;;;;;;;11.85;3.28;;;;;;;7.78;69.81;102609.41;5068077;28;20040;-67
2022/05/09 01:19:40;;;;;;;10.90;3.30;;;;;;;7.78;69.73;102605.94;5065219;28;20095;-67
2022/05/09 01:22:28;;;;;;;13.52;3.47;;;;;;;7.76;69.96;102603.31;5070554;28;20128;-68
2022/05/09 01:25:02;;;;;;;10.07;2.67;;;;;;;7.75;70.01;102593.66;5060720;28;20037;-66
2022/05/09 01:27:31;;;;;;;8.57;3.08;;;;;;;7.71;70.48;102599.72;5063302;28;20047;-67
2022/05/09 01:30:16;;;;;;;13.68;3.40;;;;;;;7.69;70.41;102595.34;5068733;28;20128;-66
2022/05/09 01:32:55;;;;;;;14.27;2.97;;;;;;;7.67;70.27;102591.81;5059309;28;20139;-66
2022/05/09 01:35:38;;;;;;;12.35;3.10;;;;;;;7.63;70.16;102600.53;5065035;28;20140;-65
2022/05/09 01:38:27;;;;;;;13.90;3.58;;;;;;;7.60;70.46;102597.00;5062416;28;20040;-65
2022/05/09 01:40:54;;;;;;;12.35;3.17;;;;;;;7.58;70.17;102603.13;5066577;28;20497;-65
2022/05/09 01:43:39;;;;;;;10.32;3.00;;;;;;;7.57;70.33;102593.47;5075548;28;20499;-67
2022/05/09 01:46:11;;;;;;;12.82;3.33;;;;;;;7.56;70.36;102594.34;5075223;28;20060;-66
2022/05/09 01:51:25;;;;;;;9.45;3.22;;;;;;;7.52;70.68;102590.81;5069459;28;20098;-67
2022/05/09 01:53:55;;;;;;;11.18;3.45;;;;;;;7.49;70.51;102584.63;5065487;28;20526;-68
2022/05/09 01:56:28;;;;;;;9.75;2.92;;;;;;;7.47;70.71;102592.50;5059372;28;20041;-67
2022/05/09 01:58:56;;;;;;;12.83;3.73;;;;;;;7.44;70.75;102590.72;5063334;28;20061;-67
2022/05/09 02:01:28;;;;;;;12.40;3.28;;;;;;;7.44;70.91;102592.44;5068518;28;20045;-68
2022/05/09 02:03:57;;;;;;;10.82;3.30;;;;;;;7.42;71.14;102591.56;5068024;28;20075;-67
2022/05/09 02:06:24;;;;;;;12.43;3.17;;;;;;;7.42;71.11;102594.19;5070109;28;20043;-66
2022/05/09 02:08:51;;;;;;;13.82;3.22;;;;;;;7.37;71.33;102588.91;5063311;28;20481;-67
2022/05/09 02:11:19;;;;;;;10.65;3.75;;;;;;;7.37;71.51;102602.03;5063621;28;20041;-67
2022/05/09 02:13:46;;;;;;;15.45;3.67;;;;;;;7.35;71.50;102593.25;5066842;28;20077;-67
2022/05/09 02:16:14;;;;;;;14.80;4.22;;;;;;;7.35;71.54;102597.59;5068063;28;20061;-66
2022/05/09 02:18:41;;;;;;;11.90;3.38;;;;;;;7.33;71.63;102589.72;5071055;28;20037;-67
2022/05/09 02:21:08;;;;;;;12.23;3.05;;;;;;;7.32;71.77;102590.56;5066248;28;20822;-68
2022/05/09 02:23:36;;;;;;;9.93;3.50;;;;;;;7.32;71.81;102584.47;5064370;28;20082;-66
2022/05/09 02:26:03;;;;;;;9.10;3.83;;;;;;;7.30;71.74;102584.44;5063809;28;20210;-66
2022/05/09 02:28:30;;;;;;;9.50;3.25;;;;;;;7.30;71.93;102587.06;5062565;28;20045;-66
2022/05/09 02:30:58;;;;;;;11.02;3.88;;;;;;;7.30;72.08;102585.31;5068770;28;20049;-67
2022/05/09 02:33:26;;;;;;;11.07;3.42;;;;;;;7.28;71.89;102586.16;5065219;28;20120;-67
2022/05/09 02:35:54;;;;;;;15.40;3.53;;;;;;;7.25;72.21;102584.38;5067376;28;20421;-66
2022/05/09 02:38:28;;;;;;;12.07;3.35;;;;;;;7.24;72.38;102585.22;5065616;28;20546;-66
2022/05/09 02:40:56;;;;;;;9.65;3.70;;;;;;;7.22;72.18;102579.13;5068729;28;20150;-66
2022/05/09 02:43:23;;;;;;;12.15;3.38;;;;;;;7.22;72.14;102575.59;5064443;28;20033;-66
2022/05/09 02:45:50;;;;;;;15.27;4.38;;;;;;;7.21;72.06;102577.34;5064797;28;20041;-67
2022/05/09 02:48:20;;;;;;;13.00;3.58;;;;;;;7.20;72.41;102572.97;5062137;28;20041;-66
2022/05/09 02:50:47;;;;;;;11.43;3.42;;;;;;;7.18;72.27;102581.66;5065881;28;20038;-67
2022/05/09 02:53:14;;;;;;;14.27;3.63;;;;;;;7.15;72.16;102580.78;5058689;28;20046;-67
2022/05/09 02:55:41;;;;;;;13.45;3.90;;;;;;;7.13;72.25;102581.59;5068767;28;20103;-66
2022/05/09 02:58:14;;;;;;;11.32;3.83;;;;;;;7.11;72.25;102578.97;5063580;28;20049;-67
2022/05/09 03:00:42;;;;;;;10.60;3.33;;;;;;;7.09;72.34;102575.44;5061387;28;20049;-67
2022/05/09 03:05:57;;;;;;;11.00;3.58;;;;;;;7.05;72.68;102581.53;5058992;28;20041;-67
2022/05/09 03:08:25;;;;;;;14.38;3.72;;;;;;;7.03;72.47;102570.13;5064135;28;20044;-67
2022/05/09 03:10:52;;;;;;;20.02;4.43;;;;;;;7.02;72.66;102578.00;5057703;28;20048;-66
2022/05/09 03:13:19;;;;;;;14.55;3.53;;;;;;;6.98;72.67;102572.69;5068572;28;20049;-66
2022/05/09 03:15:49;;;;;;;13.65;4.47;;;;;;;6.95;72.55;102575.28;5067898;28;20510;-65
2022/05/09 03:18:22;;;;;;;14.95;4.78;;;;;;;6.92;72.70;102571.75;5057242;28;20069;-66
2022/05/09 03:20:51;;;;;;;6.35;3.50;;;;;;;6.87;72.72;102569.06;5068548;28;20415;-67
2022/05/09 03:23:18;;;;;;;9.65;3.63;;;;;;;6.86;72.97;102563.81;5056910;28;20048;-68
2022/05/09 03:25:46;;;;;;;18.65;4.43;;;;;;;6.84;72.92;102569.91;5066433;28;20037;-68
2022/05/09 03:28:26;;;;;;;9.95;3.88;;;;;;;6.83;73.11;102570.78;5064183;28;20056;-68
2022/05/09 03:30:57;;;;;;;13.90;4.10;;;;;;;6.83;73.24;102568.16;5068739;28;20075;-66
2022/05/09 03:33:27;;;;;;;11.55;3.80;;;;;;;6.82;73.16;102566.38;5061677;28;20061;-65
2022/05/09 03:35:59;;;;;;;13.55;4.40;;;;;;;6.80;73.22;102560.22;5073210;28;20048;-66
2022/05/09 03:38:26;;;;;;;11.43;4.03;;;;;;;6.79;73.20;102565.47;5068033;28;20136;-66
2022/05/09 03:40:53;;;;;;;13.80;4.38;;;;;;;6.76;73.31;102562.78;5070897;28;20045;-66
2022/05/09 03:43:20;;;;;;;13.98;4.15;;;;;;;6.73;73.47;102555.78;5066181;28;20041;-68
2022/05/09 03:45:50;;;;;;;10.70;3.80;;;;;;;6.70;73.57;102554.88;5059677;28;20049;-67
2022/05/09 03:48:17;;;;;;;12.27;4.30;;;;;;;6.67;73.76;102559.19;5066018;28;20059;-68
2022/05/09 03:50:45;;;;;;;11.50;3.95;;;;;;;6.64;73.70;102555.66;5070825;28;20037;-67
2022/05/09 03:53:13;;;;;;;13.02;4.22;;;;;;;6.62;73.61;102563.47;5068375;28;20045;-68
2022/05/09 03:55:40;;;;;;;15.82;4.35;;;;;;;6.61;73.72;102556.50;5065235;28;20049;-67
2022/05/09 03:58:08;;;;;;;10.25;3.95;;;;;;;6.60;73.75;102562.59;5067328;28;20057;-68
2022/05/09 04:00:36;;;;;;;13.63;4.20;;;;;;;6.61;73.78;102559.13;5064952;28;20489;-67
2022/05/09 04:03:04;;;;;;;13.75;4.57;;;;;;;6.61;73.76;102563.47;5068311;28;20922;-69
2022/05/09 04:05:36;;;;;;;12.93;4.78;;;;;;;6.60;73.72;102561.72;5073212;28;20136;-67
2022/05/09 04:08:09;;;;;;;11.80;4.30;;;;;;;6.62;73.93;102562.63;5064190;28;20045;-67
2022/05/09 04:10:40;;;;;;;15.60;4.57;;;;;;;6.61;73.98;102555.63;5068055;28;20187;-67
2022/05/09 04:13:07;;;;;;;11.27;4.15;;;;;;;6.63;73.81;102554.75;5071801;28;20596;-67
2022/05/09 04:18:26;;;;;;;11.98;4.28;;;;;;;6.72;73.74;102555.75;5064820;28;20049;-67
2022/05/09 04:20:53;;;;;;;10.57;4.20;;;;;;;6.75;73.59;102558.41;5070180;28;20758;-66
2022/05/09 04:23:21;;;;;;;13.35;4.55;;;;;;;6.78;73.46;102556.72;5063029;28;20033;-66
2022/05/09 04:25:50;;;;;;;10.98;4.38;;;;;;;6.82;73.63;102553.28;5065046;28;20037;-67
2022/05/09 04:28:20;;;;;;;13.65;4.85;;;;;;;6.86;73.49;102545.47;5063576;28;20510;-67
2022/05/09 04:30:51;;;;;;;16.73;4.85;;;;;;;6.91;73.41;102551.63;5066218;28;20124;-66
2022/05/09 04:33:20;;;;;;;12.25;4.85;;;;;;;6.95;73.34;102549.06;5068573;28;20571;-67
2022/05/09 04:35:48;;;;;;;16.92;4.82;;;;;;;7.02;73.12;102554.41;5063976;28;20052;-66
2022/05/09 04:38:23;;;;;;;10.35;4.43;;;;;;;7.07;72.83;102552.69;5068864;28;20053;-66
2022/05/09 04:40:54;;;;;;;15.73;4.68;;;;;;;7.14;72.66;102555.41;5065894;28;20049;-65
2022/05/09 04:43:26;;;;;;;9.63;4.20;;;;;;;7.24;72.42;102559.00;5057928;28;20578;-66
2022/05/09 04:45:57;;;;;;;13.60;4.40;;;;;;;7.32;72.51;102559.09;5068411;28;20947;-67
2022/05/09 04:48:24;;;;;;;12.55;4.68;;;;;;;7.45;72.36;102549.59;5067434;28;20048;-67
2022/05/09 04:50:51;;;;;;;9.48;3.95;;;;;;;7.66;73.96;102548.03;5066876;28;20534;-66
2022/05/09 04:53:18;;;;;;;11.57;4.88;;;;;;;7.96;74.00;102543.91;5080053;28;20055;-66
2022/05/09 04:55:46;;;;;;;13.85;4.03;;;;;;;8.39;73.05;102544.22;5070658;28;20038;-66
2022/05/09 04:58:20;;;;;;;8.73;4.07;;;;;;;8.73;71.66;102535.66;5061895;28;20056;-67
2022/05/09 05:00:49;;;;;;;13.73;4.60;;;;;;;9.20;70.71;102541.97;5062502;28;20045;-67
2022/05/09 05:03:20;;;;;;;13.60;4.30;;;;;;;9.74;68.19;102531.53;5066912;28;20124;-66
2022/05/09 05:05:51;;;;;;;10.10;3.92;;;;;;;9.98;67.47;102537.66;5070509;28;20045;-68
2022/05/09 05:08:20;;;;;;;15.30;4.00;;;;;;;10.17;66.28;102536.78;5064135;28;20044;-66
2022/05/09 05:10:55;;;;;;;13.70;3.83;;;;;;;10.30;66.95;102536.75;5066316;28;20534;-67
2022/05/09 05:13:27;;;;;;;13.52;4.40;;;;;;;10.83;64.71;102533.09;5059427;28;20049;-67
2022/05/09 05:15:56;;;;;;;10.23;3.63;;;;;;;11.34;62.74;102527.53;5045438;28;20076;-68
2022/05/09 05:18:26;;;;;;;14.52;4.32;;;;;;;12.06;60.81;102529.63;5068242;28;20102;-68
2022/05/09 05:20:55;;;;;;;13.50;4.53;;;;;;;12.85;58.56;102526.13;5065686;28;20050;-66
2022/05/09 05:23:23;;;;;;;13.07;3.83;;;;;;;13.59;56.78;102537.44;5063499;28;20427;-66
2022/05/09 05:25:50;;;;;;;13.48;4.05;;;;;;;14.23;55.41;102530.16;5071503;28;20530;-66
2022/05/09 05:28:18;;;;;;;10.35;4.22;;;;;;;14.82;53.32;102518.38;5062037;28;21293;-67
2022/05/09 05:30:45;;;;;;;11.57;3.85;;;;;;;15.32;50.94;102518.16;5070580;28;20037;-65
2022/05/09 05:33:12;;;;;;;11.05;3.75;;;;;;;15.76;49.29;102517.97;5067235;28;20487;-68
2022/05/09 05:35:39;;;;;;;10.23;3.90;;;;;;;16.14;49.04;102517.91;5062163;28;20099;-66
2022/05/09 05:38:06;;;;;;;11.57;3.78;;;;;;;16.57;47.99;102521.16;5067112;28;20106;-68
2022/05/09 05:40:33;;;;;;;8.27;3.50;;;;;;;16.91;46.04;102518.34;5070225;28;20045;-67
2022/05/09 05:43:01;;;;;;;9.68;3.65;;;;;;;17.24;45.38;102517.41;5072328;28;20553;-69
2022/05/09 05:45:30;;;;;;;11.80;3.50;;;;;;;17.47;44.86;102519.31;5066707;28;20121;-68
2022/05/09 05:47:57;;;;;;;10.50;3.40;;;;;;;17.69;44.00;102524.81;5062034;28;20041;-68
2022/05/09 05:50:24;;;;;;;10.68;3.33;;;;;;;17.85;43.53;102524.31;5055988;28;20037;-68
2022/05/09 05:52:51;;;;;;;9.48;3.58;;;;;;;17.95;43.68;102520.38;5070972;28;20112;-67
2022/05/09 05:55:19;;;;;;;7.47;3.35;;;;;;;17.83;43.55;102520.81;5063447;28;20037;-67
2022/05/09 05:57:47;;;;;;;12.73;4.03;;;;;;;17.00;43.94;102525.25;5057410;28;20059;-68
2022/05/09 06:00:22;;;;;;;9.90;3.63;;;;;;;15.81;45.75;102525.84;5069876;28;20049;-68
2022/05/09 06:02:50;;;;;;;9.65;3.42;;;;;;;14.88;47.70;102530.66;5054382;28;20049;-68
2022/05/09 06:05:19;;;;;;;10.95;3.72;;;;;;;14.19;49.28;102535.53;5063407;28;20500;-67
2022/05/09 06:07:52;;;;;;;10.70;3.67;;;;;;;13.68;50.58;102539.09;5071615;28;20044;-68
2022/05/09 06:10:19;;;;;;;13.43;3.60;;;;;;;13.28;51.64;102536.09;5064284;28;20042;-68
2022/05/09 06:12:47;;;;;;;11.43;4.13;;;;;;;12.99;52.91;102544.47;5058335;28;20041;-68
2022/05/09 06:15:25;;;;;;;11.13;3.60;;;;;;;12.78;53.24;102529.72;5065359;28;20037;-67
2022/05/09 06:17:56;;;;;;;11.48;3.75;;;;;;;12.60;53.83;102533.50;5062065;28;20469;-68
2022/05/09 06:20:26;;;;;;;9.25;3.70;;;;;;;12.47;54.43;102541.56;5055149;28;20072;-67
2022/05/09 06:22:54;;;;;;;8.50;3.78;;;;;;;12.42;55.42;102538.97;5069696;28;20051;-67
2022/05/09 06:25:23;;;;;;;11.38;4.32;;;;;;;12.41;55.20;102531.06;5071107;28;20037;-67
2022/05/09 06:27:52;;;;;;;9.80;3.90;;;;;;;12.40;55.34;102531.94;5055399;28;20141;-67
2022/05/09 06:30:22;;;;;;;12.82;4.10;;;;;;;12.43;55.90;102539.81;5066183;28;20042;-66
2022/05/09 06:32:51;;;;;;;13.23;4.00;;;;;;;12.50;56.01;102530.06;5071211;28;20045;-67
2022/05/09 06:35:23;;;;;;;9.75;3.60;;;;;;;12.60;55.63;102534.34;5070880;28;20846;-68
2022/05/09 06:37:58;;;;;;;12.00;3.97;;;;;;;12.68;55.41;102536.91;5062828;28;20065;-67
2022/05/09 06:40:28;;;;;;;12.43;4.32;;;;;;;12.77;55.11;102528.84;5059990;28;20080;-68
2022/05/09 06:42:57;;;;;;;11.35;4.35;;;;;;;12.87;55.13;102537.56;5069472;28;20129;-68
2022/05/09 06:45:28;;;;;;;10.48;3.80;;;;;;;12.98;54.58;102521.53;5068578;28;20511;-68
2022/05/09 06:47:57;;;;;;;9.70;4.22;;;;;;;13.04;54.30;102518.78;5060415;28;20051;-68
2022/05/09 06:50:32;;;;;;;17.33;4.20;;;;;;;13.13;54.05;102516.00;5069917;28;20052;-68
2022/05/09 06:53:06;;;;;;;11.55;3.72;;;;;;;13.22;53.60;102517.66;5062646;28;20044;-68
2022/05/09 06:55:52;;;;;;;11.32;3.80;;;;;;;13.36;53.60;102510.41;5055393;28;20046;-67
2022/05/09 06:58:23;;;;;;;14.00;4.38;;;;;;;13.53;54.01;102519.00;5067007;28;20060;-68
2022/05/09 07:00:53;;;;;;;10.35;3.85;;;;;;;13.66;53.41;102510.84;5062794;28;20124;-67
2022/05/09 07:03:21;;;;;;;10.90;4.47;;;;;;;13.82;53.64;102506.16;5052938;28;20063;-68
2022/05/09 07:05:51;;;;;;;14.85;4.38;;;;;;;14.01;53.79;102508.47;5069213;28;20104;-68
2022/05/09 07:08:23;;;;;;;11.15;4.40;;;;;;;14.18;53.12;102512.56;5061257;28;20124;-67
2022/05/09 07:10:51;;;;;;;8.60;4.15;;;;;;;14.26;52.52;102513.28;5065589;28;20523;-68
2022/05/09 07:13:38;;;;;;;11.80;4.30;;;;;;;14.39;53.10;102517.47;5061106;28;20049;-68
2022/05/09 07:16:08;;;;;;;12.10;4.65;;;;;;;14.55;52.59;102503.91;5062331;28;20494;-68
2022/05/09 07:18:38;;;;;;;16.63;4.63;;;;;;;14.70;52.68;102508.06;5063464;28;20045;-67
2022/05/09 07:21:07;;;;;;;10.82;4.32;;;;;;;14.82;51.88;102507.75;5063402;28;20033;-68
2022/05/09 07:23:35;;;;;;;12.18;4.80;;;;;;;14.93;51.31;102511.97;5065864;28;20064;-68
2022/05/09 07:26:03;;;;;;;10.80;4.53;;;;;;;14.96;51.38;102506.59;5066580;28;20046;-68
2022/05/09 07:28:31;;;;;;;14.45;5.20;;;;;;;15.07;51.74;102500.13;5057254;28;20552;-68
2022/05/09 07:31:00;;;;;;;13.68;5.30;;;;;;;15.27;52.01;102500.59;5066345;28;20037;-68
2022/05/09 07:33:28;;;;;;;26.48;5.38;;;;;;;15.42;51.38;102499.34;5059343;28;20042;-69
2022/05/09 07:35:57;;;;;;;13.35;4.82;;;;;;;15.55;50.43;102502.56;5073983;28;20495;-68
2022/05/09 07:38:25;;;;;;;12.10;4.85;;;;;;;15.67;51.12;102500.47;5073081;28;20115;-68
2022/05/09 07:40:53;;;;;;;24.83;5.30;;;;;;;15.84;51.06;102502.72;5062893;28;20037;-68
2022/05/09 07:43:27;;;;;;;9.35;4.38;;;;;;;16.01;50.78;102500.53;5070715;28;20044;-69
2022/05/09 07:45:56;;;;;;;12.27;4.25;;;;;;;16.17;50.18;102501.00;5064067;28;20049;-68
2022/05/09 07:48:27;;;;;;;15.35;4.43;;;;;;;16.29;49.64;102506.84;5069366;28;20045;-68
2022/05/09 07:50:57;;;;;;;10.40;3.90;;;;;;;16.43;49.83;102501.13;5064573;28;20049;-67
2022/05/09 07:53:30;;;;;;;21.70;4.63;;;;;;;16.59;48.43;102506.88;5071645;28;20045;-68
2022/05/09 07:56:02;;;;;;;11.27;4.20;;;;;;;16.70;49.16;102503.91;5054444;28;20041;-68
2022/05/09 07:58:29;;;;;;;11.70;4.20;;;;;;;16.86;49.12;102492.78;5055869;28;20049;-68
2022/05/09 08:00:59;;;;;;;10.13;4.20;;;;;;;17.01;48.66;102497.69;5064232;28;20041;-67
2022/05/09 08:03:29;;;;;;;9.68;4.25;;;;;;;17.14;48.85;102491.97;5072459;28;20083;-67
2022/05/09 08:05:59;;;;;;;18.10;5.10;;;;;;;17.28;48.79;102503.03;5072664;28;20038;-68
2022/05/09 08:08:31;;;;;;;12.85;4.72;;;;;;;17.42;48.69;102497.25;5065371;28;20181;-68
2022/05/09 08:11:00;;;;;;;12.10;3.92;;;;;;;17.57;47.79;102495.03;5061096;28;20037;-68
2022/05/09 08:13:30;;;;;;;9.70;4.18;;;;;;;17.70;48.28;102489.22;5070247;28;20934;-67
2022/05/09 08:15:59;;;;;;;9.07;4.07;;;;;;;17.83;47.81;102494.13;5065489;28;20499;-68
2022/05/09 08:18:26;;;;;;;10.52;4.45;;;;;;;17.89;47.54;102501.06;5073827;28;20524;-69
2022/05/09 08:20:55;;;;;;;16.02;4.05;;;;;;;17.94;47.03;102494.63;5066384;28;20041;-68
2022/05/09 08:23:23;;;;;;;10.80;4.35;;;;;;;18.02;46.75;102490.84;5063850;28;20055;-68
2022/05/09 08:25:51;;;;;;;8.63;3.92;;;;;;;18.15;47.23;102492.16;5073141;28;20043;-69
2022/05/09 08:28:19;;;;;;;20.92;5.30;;;;;;;18.28;46.42;102496.09;5073511;28;20334;-69
2022/05/09 08:30:47;;;;;;;12.35;4.03;;;;;;;18.43;46.68;102492.00;5063890;28;20080;-69
2022/05/09 08:33:20;;;;;;;14.80;4.30;;;;;;;18.59;46.23;102499.44;5061498;28;20499;-68
2022/05/09 08:35:50;;;;;;;23.55;5.00;;;;;;;18.59;44.21;102502.97;5061867;28;20052;-68
2022/05/09 08:38:19;;;;;;;17.67;4.78;;;;;;;18.58;44.81;102503.03;5054734;28;20156;-68
2022/05/09 08:41:14;;;;;;;11.38;4.38;;;;;;;18.54;44.93;102493.38;5059878;28;20045;-69
2022/05/09 08:43:55;;;;;;;25.02;5.05;;;;;;;18.48;45.45;102497.16;5060021;28;20049;-68
2022/05/09 08:46:51;;;;;;;14.25;4.63;;;;;;;18.50;45.36;102495.31;5091244;28;20044;-68
2022/05/09 08:49:33;;;;;;;11.25;4.35;;;;;;;18.55;45.30;102496.03;5061473;28;20057;-68
2022/05/09 08:52:26;;;;;;;11.25;4.47;;;;;;;18.73;45.25;102482.88;5071503;28;20463;-68
2022/05/09 08:54:54;;;;;;;11.10;4.30;;;;;;;18.89;45.17;102488.50;5061968;28;20055;-68
2022/05/09 08:57:45;;;;;;;10.63;4.47;;;;;;;19.05;43.53;102488.78;5062857;28;20053;-68
2022/05/09 09:00:20;;;;;;;12.93;4.55;;;;;;;19.12;43.75;102494.75;5056398;28;20077;-69
2022/05/09 09:03:01;;;;;;;20.83;4.82;;;;;;;19.19;43.05;102490.91;5065341;28;20038;-69
2022/05/09 09:05:35;;;;;;;7.95;3.50;;;;;;;19.28;43.38;102489.66;5061821;28;20125;-69
2022/05/09 09:08:46;;;;;;;13.35;4.35;;;;;;;19.40;43.30;102482.00;5068998;28;20499;-69
2022/05/09 09:11:45;;;;;;;7.80;3.60;;;;;;;19.47;42.43;102479.94;5055069;28;20526;-69
2022/05/09 09:14:37;;;;;;;9.63;4.20;;;;;;;19.50;42.30;102484.28;5053448;28;20502;-69
2022/05/09 09:17:04;;;;;;;15.27;4.30;;;;;;;19.55;42.56;102482.28;5056834;28;20041;-69
2022/05/09 09:19:54;;;;;;;11.15;3.88;;;;;;;19.71;43.12;102477.13;5065526;28;20121;-69
2022/05/09 09:22:46;;;;;;;13.65;4.35;;;;;;;19.91;42.70;102472.75;5068653;28;20044;-68
2022/05/09 09:25:53;;;;;;;10.90;4.13;;;;;;;20.11;42.85;102474.56;5066393;28;20029;-69
2022/05/09 09:28:46;;;;;;;12.52;4.28;;;;;;;20.29;41.05;102464.81;5062552;28;20068;-68
2022/05/09 09:31:24;;;;;;;13.70;4.30;;;;;;;20.42;41.78;102462.44;5068797;28;20076;-68
2022/05/09 09:33:59;;;;;;;11.82;3.83;;;;;;;20.55;41.29;102468.09;5055858;28;20419;-69
2022/05/09 09:36:39;;;;;;;12.05;3.88;;;;;;;20.68;41.60;102452.28;5073362;28;20045;-69
2022/05/09 09:39:17;;;;;;;9.55;3.75;;;;;;;20.89;41.17;102455.81;5073425;28;20467;-68
2022/05/09 09:41:45;;;;;;;8.95;3.58;;;;;;;21.04;39.40;102449.69;5073205;28;20538;-69
2022/05/09 09:44:28;;;;;;;10.73;3.53;;;;;;;21.10;39.59;102449.41;5073560;28;20033;-69
2022/05/09 09:47:05;;;;;;;9.75;3.53;;;;;;;21.21;39.45;102462.25;5069698;28;20040;-69
2022/05/09 09:49:38;;;;;;;7.45;2.30;;;;;;;21.34;37.42;102457.13;5068311;28;20049;-68
2022/05/09 09:52:38;;;;;;;4.60;2.10;;;;;;;21.45;36.98;102451.25;5055907;28;20095;-68
2022/05/09 09:55:20;;;;;;;9.15;2.47;;;;;;;21.46;35.59;102449.41;5070300;28;20041;-68
2022/05/09 09:57:48;;;;;;;5.88;2.35;;;;;;;21.64;37.08;102444.94;5065401;28;20550;-68
2022/05/09 10:00:15;;;;;;;6.45;2.38;;;;;;;21.87;36.64;102443.75;5062362;28;20056;-69
2022/05/09 10:02:42;;;;;;;7.30;2.40;;;;;;;22.03;35.74;102441.97;5068007;28;20033;-68
2022/05/09 10:05:39;;;;;;;7.65;2.80;;;;;;;22.23;36.87;102440.00;5062174;28;20313;-68
2022/05/09 10:08:33;;;;;;;9.00;3.05;;;;;;;22.44;36.65;102437.13;5065583;28;20518;-67
2022/05/09 10:11:23;;;;;;;7.05;2.70;;;;;;;22.60;36.49;102443.38;5061490;28;20072;-67
2022/05/09 10:14:00;;;;;;;7.65;2.63;;;;;;;22.68;34.52;102431.31;5062890;28;20053;-67
2022/05/09 10:16:48;;;;;;;7.85;2.80;;;;;;;22.74;35.78;102429.16;5064342;28;20522;-68
2022/05/09 10:19:31;;;;;;;9.05;3.00;;;;;;;22.90;35.66;102428.25;5064762;28;20108;-68
2022/05/09 10:25:17;;;;;;;9.07;2.95;;;;;;;23.16;35.89;102424.06;5061764;28;20047;-68
2022/05/09 10:27:45;;;;;;;10.05;3.10;;;;;;;23.31;35.95;102419.63;5062297;28;20995;-67
2022/05/09 10:30:22;;;;;;;15.98;3.67;;;;;;;23.44;35.70;102421.59;5060776;28;20103;-68
2022/05/09 10:32:56;;;;;;;6.80;3.00;;;;;;;23.51;35.78;102409.47;5059877;28;20048;-68
2022/05/09 10:35:27;;;;;;;8.93;3.40;;;;;;;23.50;34.08;102405.94;5061765;28;20054;-68
2022/05/09 10:38:00;;;;;;;8.98;3.45;;;;;;;23.48;34.44;102409.69;5060524;28;20037;-67
2022/05/09 10:40:41;;;;;;;17.33;3.90;;;;;;;23.45;35.70;102408.06;5059781;28;20037;-68
2022/05/09 10:43:19;;;;;;;7.55;3.45;;;;;;;23.42;33.37;102397.47;5062758;28;20802;-68
2022/05/09 10:45:51;;;;;;;10.00;3.47;;;;;;;23.31;34.49;102402.63;5064200;28;20139;-69
2022/05/09 10:48:29;;;;;;;11.27;3.75;;;;;;;23.19;34.00;102394.34;5062168;28;20493;-68
2022/05/09 10:51:10;;;;;;;13.18;3.83;;;;;;;23.24;34.65;102392.25;5061160;28;20042;-70
2022/05/09 10:54:10;;;;;;;7.22;3.40;;;;;;;23.34;34.76;102389.00;5060276;28;20065;-68
2022/05/09 10:56:44;;;;;;;8.93;3.47;;;;;;;23.52;35.43;102389.69;5064034;28;20041;-68
2022/05/09 10:59:22;;;;;;;13.20;3.33;;;;;;;23.75;34.84;102387.41;5062928;28;20049;-68
2022/05/09 11:02:31;;;;;;;9.68;3.60;;;;;;;23.98;35.20;102388.69;5060157;28;20118;-68
2022/05/09 11:04:59;;;;;;;12.93;3.85;;;;;;;24.22;35.00;102383.56;5065735;28;20037;-68
2022/05/09 11:08:11;;;;;;;10.70;3.60;;;;;;;24.39;33.73;102379.78;5069796;28;20041;-69
2022/05/09 11:11:09;;;;;;;9.27;4.10;;;;;;;24.42;32.57;102376.03;5055395;28;20157;-68
2022/05/09 11:14:12;;;;;;;15.63;3.60;;;;;;;24.44;34.07;102377.66;5060929;28;20071;-68
2022/05/09 11:16:45;;;;;;;9.45;3.78;;;;;;;24.52;32.75;102373.59;5069104;28;20037;-68
2022/05/09 11:20:17;;;;;;;10.35;3.92;;;;;;;24.53;33.63;102373.47;5070224;28;20048;-69
2022/05/09 11:23:33;;;;;;;7.18;3.85;;;;;;;24.59;33.14;102370.41;5053222;28;20049;-69
2022/05/09 11:26:37;;;;;;;9.73;4.38;;;;;;;24.59;32.92;102365.00;5024632;28;20053;-70
2022/05/09 11:29:46;;;;;;;13.77;4.13;;;;;;;24.43;32.47;102361.56;5058512;28;20503;-67
2022/05/09 11:32:24;;;;;;;13.18;4.40;;;;;;;24.33;33.03;102366.72;5054491;28;20462;-69
2022/05/09 11:35:34;;;;;;;14.98;4.40;;;;;;;24.46;33.60;102361.38;5066791;28;20779;-71
2022/05/09 11:38:55;;;;;;;11.20;4.00;;;;;;;24.73;33.25;102355.16;5066197;28;20083;-68
2022/05/09 11:41:39;;;;;;;10.20;5.03;;;;;;;24.99;32.65;102352.53;5063690;28;20136;-68
2022/05/09 11:44:16;;;;;;;11.00;4.43;;;;;;;25.08;33.54;102357.31;5066402;28;20048;-67
2022/05/09 11:47:15;;;;;;;9.77;4.18;;;;;;;25.22;32.28;102348.25;5057207;28;20076;-69
2022/05/09 11:49:54;;;;;;;10.00;5.00;;;;;;;25.23;32.26;102341.91;5066412;28;20029;-67
2022/05/09 11:52:27;;;;;;;10.38;4.80;;;;;;;25.32;32.75;102341.25;5062079;28;20473;-66
2022/05/09 11:55:08;;;;;;;12.07;4.75;;;;;;;25.38;32.72;102332.75;5056453;28;20053;-66
2022/05/09 11:57:40;;;;;;;13.63;5.13;;;;;;;25.57;32.72;102339.56;5065468;28;20041;-69
2022/05/09 12:00:35;;;;;;;10.15;5.00;;;;;;;25.76;31.58;102333.69;5056029;28;20498;-70
2022/05/09 12:03:09;;;;;;;10.70;4.70;;;;;;;25.85;33.25;102332.19;5065211;28;20458;-66
2022/05/09 12:06:00;;;;;;;14.40;4.85;;;;;;;26.02;32.37;102326.41;5059133;28;20526;-69